sensor_id;sensor_type;location;lat;lon;timestamp;P1;durP1;ratioP1;P2;durP2;ratioP2
40669;SDS011;26355;45.528;9.234;2023-07-13T00:01:04;12.98;;;3.72;;
40669;SDS011;26355;45.528;9.234;2023-07-13T00:03:31;15.20;;;3.47;;
40669;SDS011;26355;45.528;9.234;2023-07-13T00:06:00;10.95;;;3.40;;
40669;SDS011;26355;45.528;9.234;2023-07-13T00:08:26;10.70;;;3.27;;
40669;SDS011;26355;45.528;9.234;2023-07-13T00:10:55;13.55;;;3.53;;
40669;SDS011;26355;45.528;9.234;2023-07-13T00:13:20;12.25;;;3.10;;
40669;SDS011;26355;45.528;9.234;2023-07-13T00:15:46;12.43;;;3.33;;
40669;SDS011;26355;45.528;9.234;2023-07-13T00:18:11;13.00;;;3.13;;
40669;SDS011;26355;45.528;9.234;2023-07-13T00:20:37;15.00;;;3.75;;
40669;SDS011;26355;45.528;9.234;2023-07-13T00:23:02;14.88;;;4.07;;
40669;SDS011;26355;45.528;9.234;2023-07-13T00:25:28;11.13;;;3.30;;
40669;SDS011;26355;45.528;9.234;2023-07-13T00:27:54;11.05;;;3.20;;
40669;SDS011;26355;45.528;9.234;2023-07-13T00:30:20;12.60;;;3.33;;
40669;SDS011;26355;45.528;9.234;2023-07-13T00:32:46;12.73;;;3.78;;
40669;SDS011;26355;45.528;9.234;2023-07-13T00:35:13;14.07;;;3.67;;
40669;SDS011;26355;45.528;9.234;2023-07-13T00:37:39;15.07;;;3.90;;
40669;SDS011;26355;45.528;9.234;2023-07-13T00:40:05;10.77;;;3.22;;
40669;SDS011;26355;45.528;9.234;2023-07-13T00:42:32;12.55;;;3.70;;
40669;SDS011;26355;45.528;9.234;2023-07-13T00:45:02;12.23;;;3.55;;
40669;SDS011;26355;45.528;9.234;2023-07-13T00:47:37;15.23;;;3.92;;
40669;SDS011;26355;45.528;9.234;2023-07-13T00:50:04;11.17;;;4.00;;
40669;SDS011;26355;45.528;9.234;2023-07-13T00:52:33;13.82;;;4.30;;
40669;SDS011;26355;45.528;9.234;2023-07-13T00:55:01;11.75;;;3.97;;
40669;SDS011;26355;45.528;9.234;2023-07-13T00:57:28;11.32;;;4.22;;
40669;SDS011;26355;45.528;9.234;2023-07-13T00:59:54;13.77;;;3.95;;
40669;SDS011;26355;45.528;9.234;2023-07-13T01:02:24;14.98;;;3.95;;
40669;SDS011;26355;45.528;9.234;2023-07-13T01:04:50;15.68;;;4.68;;
40669;SDS011;26355;45.528;9.234;2023-07-13T01:07:16;16.33;;;5.63;;
40669;SDS011;26355;45.528;9.234;2023-07-13T01:09:44;13.80;;;4.55;;
40669;SDS011;26355;45.528;9.234;2023-07-13T01:12:10;15.32;;;4.43;;
40669;SDS011;26355;45.528;9.234;2023-07-13T01:14:36;12.97;;;3.57;;
40669;SDS011;26355;45.528;9.234;2023-07-13T01:17:02;14.05;;;4.40;;
40669;SDS011;26355;45.528;9.234;2023-07-13T01:19:39;13.48;;;3.45;;
40669;SDS011;26355;45.528;9.234;2023-07-13T01:22:11;12.93;;;3.70;;
40669;SDS011;26355;45.528;9.234;2023-07-13T01:24:40;12.05;;;4.20;;
40669;SDS011;26355;45.528;9.234;2023-07-13T01:27:08;15.38;;;4.10;;
40669;SDS011;26355;45.528;9.234;2023-07-13T01:29:36;15.30;;;4.35;;
40669;SDS011;26355;45.528;9.234;2023-07-13T01:32:09;13.35;;;4.22;;
40669;SDS011;26355;45.528;9.234;2023-07-13T01:34:40;13.85;;;4.00;;
40669;SDS011;26355;45.528;9.234;2023-07-13T01:37:09;13.20;;;4.13;;
40669;SDS011;26355;45.528;9.234;2023-07-13T01:39:36;13.85;;;4.03;;
40669;SDS011;26355;45.528;9.234;2023-07-13T01:42:02;14.50;;;4.15;;
40669;SDS011;26355;45.528;9.234;2023-07-13T01:44:28;13.60;;;4.18;;
40669;SDS011;26355;45.528;9.234;2023-07-13T01:46:54;11.40;;;3.75;;
40669;SDS011;26355;45.528;9.234;2023-07-13T01:49:19;12.18;;;4.00;;
40669;SDS011;26355;45.528;9.234;2023-07-13T01:51:45;14.10;;;3.85;;
40669;SDS011;26355;45.528;9.234;2023-07-13T01:54:10;15.32;;;4.35;;
40669;SDS011;26355;45.528;9.234;2023-07-13T01:56:36;15.05;;;3.95;;
40669;SDS011;26355;45.528;9.234;2023-07-13T01:59:02;14.63;;;4.40;;
40669;SDS011;26355;45.528;9.234;2023-07-13T02:01:27;13.27;;;4.15;;
40669;SDS011;26355;45.528;9.234;2023-07-13T02:03:53;12.25;;;4.05;;
40669;SDS011;26355;45.528;9.234;2023-07-13T02:06:19;14.93;;;4.47;;
40669;SDS011;26355;45.528;9.234;2023-07-13T02:08:44;15.23;;;4.78;;
40669;SDS011;26355;45.528;9.234;2023-07-13T02:11:10;13.07;;;4.13;;
40669;SDS011;26355;45.528;9.234;2023-07-13T02:13:36;13.38;;;4.68;;
40669;SDS011;26355;45.528;9.234;2023-07-13T02:16:01;15.13;;;4.82;;
40669;SDS011;26355;45.528;9.234;2023-07-13T02:18:27;15.63;;;4.22;;
40669;SDS011;26355;45.528;9.234;2023-07-13T02:20:52;15.35;;;4.78;;
40669;SDS011;26355;45.528;9.234;2023-07-13T02:23:18;14.70;;;4.28;;
40669;SDS011;26355;45.528;9.234;2023-07-13T02:25:44;12.68;;;4.43;;
40669;SDS011;26355;45.528;9.234;2023-07-13T02:28:09;15.93;;;5.30;;
40669;SDS011;26355;45.528;9.234;2023-07-13T02:30:35;14.73;;;4.57;;
40669;SDS011;26355;45.528;9.234;2023-07-13T02:33:01;16.33;;;4.50;;
40669;SDS011;26355;45.528;9.234;2023-07-13T02:35:27;14.05;;;4.40;;
40669;SDS011;26355;45.528;9.234;2023-07-13T02:37:53;16.45;;;4.55;;
40669;SDS011;26355;45.528;9.234;2023-07-13T02:40:18;13.27;;;4.15;;
40669;SDS011;26355;45.528;9.234;2023-07-13T02:42:44;12.15;;;3.95;;
40669;SDS011;26355;45.528;9.234;2023-07-13T02:45:09;12.95;;;4.10;;
40669;SDS011;26355;45.528;9.234;2023-07-13T02:47:35;14.25;;;3.78;;
40669;SDS011;26355;45.528;9.234;2023-07-13T02:50:01;12.10;;;3.70;;
40669;SDS011;26355;45.528;9.234;2023-07-13T02:52:27;15.77;;;4.47;;
40669;SDS011;26355;45.528;9.234;2023-07-13T02:54:53;11.88;;;3.78;;
40669;SDS011;26355;45.528;9.234;2023-07-13T02:57:18;14.50;;;4.13;;
40669;SDS011;26355;45.528;9.234;2023-07-13T02:59:44;14.32;;;3.90;;
40669;SDS011;26355;45.528;9.234;2023-07-13T03:02:09;13.40;;;3.80;;
40669;SDS011;26355;45.528;9.234;2023-07-13T03:04:35;11.93;;;3.80;;
40669;SDS011;26355;45.528;9.234;2023-07-13T03:07:02;13.98;;;3.95;;
40669;SDS011;26355;45.528;9.234;2023-07-13T03:09:28;14.02;;;4.03;;
40669;SDS011;26355;45.528;9.234;2023-07-13T03:11:54;11.95;;;3.75;;
40669;SDS011;26355;45.528;9.234;2023-07-13T03:14:21;16.37;;;4.17;;
40669;SDS011;26355;45.528;9.234;2023-07-13T03:16:47;12.98;;;4.28;;
40669;SDS011;26355;45.528;9.234;2023-07-13T03:19:12;14.90;;;4.65;;
40669;SDS011;26355;45.528;9.234;2023-07-13T03:21:38;14.10;;;4.10;;
40669;SDS011;26355;45.528;9.234;2023-07-13T03:24:04;13.38;;;4.13;;
40669;SDS011;26355;45.528;9.234;2023-07-13T03:26:30;14.13;;;4.70;;
40669;SDS011;26355;45.528;9.234;2023-07-13T03:28:56;15.57;;;4.32;;
40669;SDS011;26355;45.528;9.234;2023-07-13T03:31:23;13.27;;;4.72;;
40669;SDS011;26355;45.528;9.234;2023-07-13T03:33:53;13.95;;;3.97;;
40669;SDS011;26355;45.528;9.234;2023-07-13T03:36:20;15.38;;;4.55;;
40669;SDS011;26355;45.528;9.234;2023-07-13T03:38:53;14.07;;;4.18;;
40669;SDS011;26355;45.528;9.234;2023-07-13T03:41:24;12.68;;;3.80;;
40669;SDS011;26355;45.528;9.234;2023-07-13T03:43:50;12.77;;;4.05;;
40669;SDS011;26355;45.528;9.234;2023-07-13T03:46:16;12.90;;;3.92;;
40669;SDS011;26355;45.528;9.234;2023-07-13T03:48:43;15.43;;;5.40;;
40669;SDS011;26355;45.528;9.234;2023-07-13T03:51:10;15.88;;;5.57;;
40669;SDS011;26355;45.528;9.234;2023-07-13T03:53:38;13.50;;;4.30;;
40669;SDS011;26355;45.528;9.234;2023-07-13T03:56:05;17.17;;;5.47;;
40669;SDS011;26355;45.528;9.234;2023-07-13T03:58:33;14.90;;;4.70;;
40669;SDS011;26355;45.528;9.234;2023-07-13T04:01:00;15.25;;;5.22;;
40669;SDS011;26355;45.528;9.234;2023-07-13T04:03:28;15.80;;;5.45;;
40669;SDS011;26355;45.528;9.234;2023-07-13T04:05:57;14.93;;;6.07;;
40669;SDS011;26355;45.528;9.234;2023-07-13T04:08:24;16.27;;;5.57;;
40669;SDS011;26355;45.528;9.234;2023-07-13T04:10:53;14.57;;;5.53;;
40669;SDS011;26355;45.528;9.234;2023-07-13T04:13:19;16.45;;;5.97;;
40669;SDS011;26355;45.528;9.234;2023-07-13T04:15:45;20.05;;;6.72;;
40669;SDS011;26355;45.528;9.234;2023-07-13T04:18:10;15.02;;;5.53;;
40669;SDS011;26355;45.528;9.234;2023-07-13T04:20:36;18.67;;;5.88;;
40669;SDS011;26355;45.528;9.234;2023-07-13T04:23:02;14.88;;;5.85;;
40669;SDS011;26355;45.528;9.234;2023-07-13T04:25:27;17.02;;;6.30;;
40669;SDS011;26355;45.528;9.234;2023-07-13T04:27:53;15.88;;;5.57;;
40669;SDS011;26355;45.528;9.234;2023-07-13T04:30:19;17.17;;;5.80;;
40669;SDS011;26355;45.528;9.234;2023-07-13T04:32:45;18.15;;;7.22;;
40669;SDS011;26355;45.528;9.234;2023-07-13T04:35:10;18.65;;;7.75;;
40669;SDS011;26355;45.528;9.234;2023-07-13T04:37:36;19.98;;;7.07;;
40669;SDS011;26355;45.528;9.234;2023-07-13T04:40:02;19.77;;;7.90;;
40669;SDS011;26355;45.528;9.234;2023-07-13T04:42:28;19.25;;;7.05;;
40669;SDS011;26355;45.528;9.234;2023-07-13T04:44:54;18.92;;;6.28;;
40669;SDS011;26355;45.528;9.234;2023-07-13T04:47:20;19.45;;;6.22;;
40669;SDS011;26355;45.528;9.234;2023-07-13T04:49:46;16.88;;;5.72;;
40669;SDS011;26355;45.528;9.234;2023-07-13T04:52:11;18.95;;;9.10;;
40669;SDS011;26355;45.528;9.234;2023-07-13T04:54:37;21.05;;;8.93;;
40669;SDS011;26355;45.528;9.234;2023-07-13T04:57:04;21.10;;;9.43;;
40669;SDS011;26355;45.528;9.234;2023-07-13T04:59:32;18.65;;;7.55;;
40669;SDS011;26355;45.528;9.234;2023-07-13T05:01:58;16.23;;;6.22;;
40669;SDS011;26355;45.528;9.234;2023-07-13T05:04:23;19.17;;;6.05;;
40669;SDS011;26355;45.528;9.234;2023-07-13T05:06:49;16.70;;;5.70;;
40669;SDS011;26355;45.528;9.234;2023-07-13T05:09:14;16.52;;;5.78;;
40669;SDS011;26355;45.528;9.234;2023-07-13T05:11:40;14.82;;;5.20;;
40669;SDS011;26355;45.528;9.234;2023-07-13T05:14:05;15.35;;;5.53;;
40669;SDS011;26355;45.528;9.234;2023-07-13T05:16:31;15.00;;;5.75;;
40669;SDS011;26355;45.528;9.234;2023-07-13T05:18:57;16.13;;;4.80;;
40669;SDS011;26355;45.528;9.234;2023-07-13T05:21:23;15.13;;;4.80;;
40669;SDS011;26355;45.528;9.234;2023-07-13T05:23:49;14.77;;;4.60;;
40669;SDS011;26355;45.528;9.234;2023-07-13T05:26:15;12.93;;;4.07;;
40669;SDS011;26355;45.528;9.234;2023-07-13T05:28:41;15.50;;;4.50;;
40669;SDS011;26355;45.528;9.234;2023-07-13T05:31:09;14.52;;;4.60;;
40669;SDS011;26355;45.528;9.234;2023-07-13T05:33:35;16.05;;;5.30;;
40669;SDS011;26355;45.528;9.234;2023-07-13T05:36:01;16.80;;;5.35;;
40669;SDS011;26355;45.528;9.234;2023-07-13T05:38:27;15.85;;;4.72;;
40669;SDS011;26355;45.528;9.234;2023-07-13T05:40:53;13.82;;;4.25;;
40669;SDS011;26355;45.528;9.234;2023-07-13T05:43:20;13.20;;;3.60;;
40669;SDS011;26355;45.528;9.234;2023-07-13T05:45:47;9.93;;;3.23;;
40669;SDS011;26355;45.528;9.234;2023-07-13T05:48:12;11.48;;;2.78;;
40669;SDS011;26355;45.528;9.234;2023-07-13T05:50:38;13.45;;;3.30;;
40669;SDS011;26355;45.528;9.234;2023-07-13T05:53:04;11.18;;;2.95;;
40669;SDS011;26355;45.528;9.234;2023-07-13T05:55:29;11.68;;;3.88;;
40669;SDS011;26355;45.528;9.234;2023-07-13T05:57:56;14.38;;;4.05;;
40669;SDS011;26355;45.528;9.234;2023-07-13T06:00:23;15.45;;;4.32;;
40669;SDS011;26355;45.528;9.234;2023-07-13T06:02:49;14.20;;;4.00;;
40669;SDS011;26355;45.528;9.234;2023-07-13T06:05:14;11.07;;;2.97;;
40669;SDS011;26355;45.528;9.234;2023-07-13T06:07:40;12.35;;;3.40;;
40669;SDS011;26355;45.528;9.234;2023-07-13T06:10:06;11.57;;;3.13;;
40669;SDS011;26355;45.528;9.234;2023-07-13T06:12:32;15.55;;;3.70;;
40669;SDS011;26355;45.528;9.234;2023-07-13T06:14:57;12.32;;;3.72;;
40669;SDS011;26355;45.528;9.234;2023-07-13T06:17:23;13.80;;;3.65;;
40669;SDS011;26355;45.528;9.234;2023-07-13T06:19:49;12.68;;;3.38;;
40669;SDS011;26355;45.528;9.234;2023-07-13T06:22:14;9.40;;;3.03;;
40669;SDS011;26355;45.528;9.234;2023-07-13T06:24:40;9.65;;;2.50;;
40669;SDS011;26355;45.528;9.234;2023-07-13T06:27:05;7.88;;;2.50;;
40669;SDS011;26355;45.528;9.234;2023-07-13T06:29:31;12.40;;;3.30;;
40669;SDS011;26355;45.528;9.234;2023-07-13T06:31:56;9.32;;;2.70;;
40669;SDS011;26355;45.528;9.234;2023-07-13T06:34:22;8.18;;;2.25;;
40669;SDS011;26355;45.528;9.234;2023-07-13T06:36:48;13.52;;;2.30;;
40669;SDS011;26355;45.528;9.234;2023-07-13T06:39:13;8.70;;;2.22;;
40669;SDS011;26355;45.528;9.234;2023-07-13T06:41:39;5.65;;;2.15;;
40669;SDS011;26355;45.528;9.234;2023-07-13T06:44:05;8.68;;;2.05;;
40669;SDS011;26355;45.528;9.234;2023-07-13T06:46:31;7.47;;;2.40;;
40669;SDS011;26355;45.528;9.234;2023-07-13T06:48:57;11.48;;;2.35;;
40669;SDS011;26355;45.528;9.234;2023-07-13T06:51:22;9.68;;;2.67;;
40669;SDS011;26355;45.528;9.234;2023-07-13T06:53:48;10.95;;;2.30;;
40669;SDS011;26355;45.528;9.234;2023-07-13T06:56:15;8.60;;;2.03;;
40669;SDS011;26355;45.528;9.234;2023-07-13T06:58:41;10.82;;;2.38;;
40669;SDS011;26355;45.528;9.234;2023-07-13T07:01:06;10.02;;;2.50;;
40669;SDS011;26355;45.528;9.234;2023-07-13T07:03:32;9.70;;;2.28;;
40669;SDS011;26355;45.528;9.234;2023-07-13T07:06:12;9.05;;;2.35;;
40669;SDS011;26355;45.528;9.234;2023-07-13T07:08:42;8.68;;;2.47;;
40669;SDS011;26355;45.528;9.234;2023-07-13T07:11:11;9.73;;;2.53;;
40669;SDS011;26355;45.528;9.234;2023-07-13T07:13:38;8.43;;;2.53;;
40669;SDS011;26355;45.528;9.234;2023-07-13T07:16:04;11.52;;;2.33;;
40669;SDS011;26355;45.528;9.234;2023-07-13T07:18:29;8.98;;;2.75;;
40669;SDS011;26355;45.528;9.234;2023-07-13T07:20:55;12.10;;;2.95;;
40669;SDS011;26355;45.528;9.234;2023-07-13T07:23:20;9.65;;;2.50;;
40669;SDS011;26355;45.528;9.234;2023-07-13T07:25:46;11.25;;;2.42;;
40669;SDS011;26355;45.528;9.234;2023-07-13T07:28:14;12.65;;;3.30;;
40669;SDS011;26355;45.528;9.234;2023-07-13T07:30:42;9.18;;;2.30;;
40669;SDS011;26355;45.528;9.234;2023-07-13T07:33:09;7.45;;;2.17;;
40669;SDS011;26355;45.528;9.234;2023-07-13T07:35:34;10.00;;;2.80;;
40669;SDS011;26355;45.528;9.234;2023-07-13T07:38:00;12.32;;;3.03;;
40669;SDS011;26355;45.528;9.234;2023-07-13T07:40:25;13.60;;;3.08;;
40669;SDS011;26355;45.528;9.234;2023-07-13T07:42:51;12.98;;;3.03;;
40669;SDS011;26355;45.528;9.234;2023-07-13T07:45:18;12.55;;;3.10;;
40669;SDS011;26355;45.528;9.234;2023-07-13T07:50:10;14.23;;;3.20;;
40669;SDS011;26355;45.528;9.234;2023-07-13T07:52:36;12.93;;;2.95;;
40669;SDS011;26355;45.528;9.234;2023-07-13T07:55:02;11.30;;;2.80;;
40669;SDS011;26355;45.528;9.234;2023-07-13T07:57:32;11.20;;;2.90;;
40669;SDS011;26355;45.528;9.234;2023-07-13T07:59:57;9.75;;;2.42;;
40669;SDS011;26355;45.528;9.234;2023-07-13T08:02:24;11.43;;;3.20;;
40669;SDS011;26355;45.528;9.234;2023-07-13T08:07:16;14.70;;;3.07;;
40669;SDS011;26355;45.528;9.234;2023-07-13T08:09:41;14.93;;;3.03;;
40669;SDS011;26355;45.528;9.234;2023-07-13T08:12:07;10.10;;;2.42;;
40669;SDS011;26355;45.528;9.234;2023-07-13T08:14:33;7.55;;;2.55;;
40669;SDS011;26355;45.528;9.234;2023-07-13T08:16:58;10.27;;;2.63;;
40669;SDS011;26355;45.528;9.234;2023-07-13T08:19:24;13.13;;;3.22;;
40669;SDS011;26355;45.528;9.234;2023-07-13T08:21:49;8.73;;;2.60;;
40669;SDS011;26355;45.528;9.234;2023-07-13T08:24:15;11.27;;;2.78;;
40669;SDS011;26355;45.528;9.234;2023-07-13T08:26:43;11.05;;;3.35;;
40669;SDS011;26355;45.528;9.234;2023-07-13T08:29:09;13.68;;;3.65;;
40669;SDS011;26355;45.528;9.234;2023-07-13T08:31:41;14.40;;;5.05;;
40669;SDS011;26355;45.528;9.234;2023-07-13T08:34:27;12.90;;;3.90;;
40669;SDS011;26355;45.528;9.234;2023-07-13T08:36:53;16.83;;;5.82;;
40669;SDS011;26355;45.528;9.234;2023-07-13T08:39:18;12.45;;;4.22;;
40669;SDS011;26355;45.528;9.234;2023-07-13T08:41:45;16.80;;;5.75;;
40669;SDS011;26355;45.528;9.234;2023-07-13T08:44:20;14.73;;;4.57;;
40669;SDS011;26355;45.528;9.234;2023-07-13T08:46:57;15.43;;;4.80;;
40669;SDS011;26355;45.528;9.234;2023-07-13T08:49:24;14.18;;;4.60;;
40669;SDS011;26355;45.528;9.234;2023-07-13T08:51:58;12.95;;;4.28;;
40669;SDS011;26355;45.528;9.234;2023-07-13T08:54:35;13.20;;;4.68;;
40669;SDS011;26355;45.528;9.234;2023-07-13T08:57:12;15.50;;;4.63;;
40669;SDS011;26355;45.528;9.234;2023-07-13T08:59:40;15.85;;;5.35;;
40669;SDS011;26355;45.528;9.234;2023-07-13T09:04:51;12.40;;;4.35;;
40669;SDS011;26355;45.528;9.234;2023-07-13T09:07:24;14.65;;;4.15;;
40669;SDS011;26355;45.528;9.234;2023-07-13T09:10:20;14.75;;;3.72;;
40669;SDS011;26355;45.528;9.234;2023-07-13T09:15:45;12.60;;;3.80;;
40669;SDS011;26355;45.528;9.234;2023-07-13T09:18:15;13.85;;;4.63;;
40669;SDS011;26355;45.528;9.234;2023-07-13T09:21:13;12.73;;;4.05;;
40669;SDS011;26355;45.528;9.234;2023-07-13T09:23:54;14.13;;;4.60;;
40669;SDS011;26355;45.528;9.234;2023-07-13T09:26:25;14.85;;;4.90;;
40669;SDS011;26355;45.528;9.234;2023-07-13T09:28:59;11.95;;;3.88;;
40669;SDS011;26355;45.528;9.234;2023-07-13T09:31:41;13.75;;;4.57;;
40669;SDS011;26355;45.528;9.234;2023-07-13T09:34:10;18.00;;;5.47;;
40669;SDS011;26355;45.528;9.234;2023-07-13T09:36:36;16.30;;;4.60;;
40669;SDS011;26355;45.528;9.234;2023-07-13T09:39:04;15.77;;;5.07;;
40669;SDS011;26355;45.528;9.234;2023-07-13T09:41:39;16.08;;;5.03;;
40669;SDS011;26355;45.528;9.234;2023-07-13T09:46:36;16.45;;;5.45;;
40669;SDS011;26355;45.528;9.234;2023-07-13T09:49:03;17.45;;;4.80;;
40669;SDS011;26355;45.528;9.234;2023-07-13T09:51:29;17.35;;;5.22;;
40669;SDS011;26355;45.528;9.234;2023-07-13T09:53:54;15.23;;;5.07;;
40669;SDS011;26355;45.528;9.234;2023-07-13T09:56:24;12.45;;;4.72;;
40669;SDS011;26355;45.528;9.234;2023-07-13T09:58:52;14.77;;;4.50;;
40669;SDS011;26355;45.528;9.234;2023-07-13T10:01:31;14.00;;;4.20;;
40669;SDS011;26355;45.528;9.234;2023-07-13T10:03:59;14.25;;;5.05;;
40669;SDS011;26355;45.528;9.234;2023-07-13T10:06:25;13.55;;;4.25;;
40669;SDS011;26355;45.528;9.234;2023-07-13T10:08:51;14.65;;;4.35;;
40669;SDS011;26355;45.528;9.234;2023-07-13T10:11:22;15.98;;;5.03;;
40669;SDS011;26355;45.528;9.234;2023-07-13T10:13:52;16.42;;;4.97;;
40669;SDS011;26355;45.528;9.234;2023-07-13T10:16:20;15.70;;;5.07;;
40669;SDS011;26355;45.528;9.234;2023-07-13T10:18:48;16.95;;;5.07;;
40669;SDS011;26355;45.528;9.234;2023-07-13T10:21:17;17.80;;;5.53;;
40669;SDS011;26355;45.528;9.234;2023-07-13T10:23:47;16.45;;;4.70;;
40669;SDS011;26355;45.528;9.234;2023-07-13T10:26:23;15.25;;;4.30;;
40669;SDS011;26355;45.528;9.234;2023-07-13T10:28:54;12.63;;;3.50;;
40669;SDS011;26355;45.528;9.234;2023-07-13T10:31:24;12.35;;;3.50;;
40669;SDS011;26355;45.528;9.234;2023-07-13T10:33:49;14.48;;;3.95;;
40669;SDS011;26355;45.528;9.234;2023-07-13T10:36:33;11.68;;;3.60;;
40669;SDS011;26355;45.528;9.234;2023-07-13T10:39:04;13.18;;;3.80;;
40669;SDS011;26355;45.528;9.234;2023-07-13T10:41:31;13.73;;;4.25;;
40669;SDS011;26355;45.528;9.234;2023-07-13T10:44:01;13.02;;;4.07;;
40669;SDS011;26355;45.528;9.234;2023-07-13T10:46:29;14.35;;;5.07;;
40669;SDS011;26355;45.528;9.234;2023-07-13T10:48:59;14.43;;;5.40;;
40669;SDS011;26355;45.528;9.234;2023-07-13T10:51:29;12.77;;;4.28;;
40669;SDS011;26355;45.528;9.234;2023-07-13T10:54:10;15.47;;;4.50;;
40669;SDS011;26355;45.528;9.234;2023-07-13T10:56:43;13.48;;;4.15;;
40669;SDS011;26355;45.528;9.234;2023-07-13T10:59:10;15.80;;;5.15;;
40669;SDS011;26355;45.528;9.234;2023-07-13T11:04:25;13.90;;;4.30;;
40669;SDS011;26355;45.528;9.234;2023-07-13T11:06:58;17.25;;;5.78;;
40669;SDS011;26355;45.528;9.234;2023-07-13T11:12:02;15.23;;;4.72;;
40669;SDS011;26355;45.528;9.234;2023-07-13T11:22:43;12.27;;;3.40;;
40669;SDS011;26355;45.528;9.234;2023-07-13T11:25:28;12.05;;;3.33;;
40669;SDS011;26355;45.528;9.234;2023-07-13T11:28:06;11.07;;;3.38;;
40669;SDS011;26355;45.528;9.234;2023-07-13T11:30:43;11.55;;;4.03;;
40669;SDS011;26355;45.528;9.234;2023-07-13T11:33:14;12.70;;;4.40;;
40669;SDS011;26355;45.528;9.234;2023-07-13T11:35:57;11.57;;;3.60;;
40669;SDS011;26355;45.528;9.234;2023-07-13T11:41:05;12.45;;;3.40;;
40669;SDS011;26355;45.528;9.234;2023-07-13T11:43:49;9.32;;;2.90;;
40669;SDS011;26355;45.528;9.234;2023-07-13T11:46:20;11.02;;;3.15;;
40669;SDS011;26355;45.528;9.234;2023-07-13T11:48:47;11.15;;;3.17;;
40669;SDS011;26355;45.528;9.234;2023-07-13T11:51:17;11.73;;;3.10;;
40669;SDS011;26355;45.528;9.234;2023-07-13T11:53:51;11.98;;;3.30;;
40669;SDS011;26355;45.528;9.234;2023-07-13T11:56:18;13.75;;;3.53;;
40669;SDS011;26355;45.528;9.234;2023-07-13T11:58:47;12.85;;;3.40;;
40669;SDS011;26355;45.528;9.234;2023-07-13T12:01:16;12.80;;;3.13;;
40669;SDS011;26355;45.528;9.234;2023-07-13T12:03:45;12.52;;;3.45;;
40669;SDS011;26355;45.528;9.234;2023-07-13T12:06:28;12.52;;;3.85;;
40669;SDS011;26355;45.528;9.234;2023-07-13T12:08:56;12.43;;;3.40;;
40669;SDS011;26355;45.528;9.234;2023-07-13T12:11:26;13.00;;;3.67;;
40669;SDS011;26355;45.528;9.234;2023-07-13T12:13:52;11.83;;;3.43;;
40669;SDS011;26355;45.528;9.234;2023-07-13T12:19:00;11.63;;;3.08;;
40669;SDS011;26355;45.528;9.234;2023-07-13T12:21:32;15.88;;;3.60;;
40669;SDS011;26355;45.528;9.234;2023-07-13T12:23:59;12.93;;;3.30;;
40669;SDS011;26355;45.528;9.234;2023-07-13T12:26:27;12.27;;;3.95;;
40669;SDS011;26355;45.528;9.234;2023-07-13T12:28:54;12.80;;;3.90;;
40669;SDS011;26355;45.528;9.234;2023-07-13T12:34:16;14.80;;;4.25;;
40669;SDS011;26355;45.528;9.234;2023-07-13T12:36:48;11.77;;;3.30;;
40669;SDS011;26355;45.528;9.234;2023-07-13T12:41:46;13.32;;;3.42;;
40669;SDS011;26355;45.528;9.234;2023-07-13T12:44:16;14.60;;;4.00;;
40669;SDS011;26355;45.528;9.234;2023-07-13T12:46:57;14.07;;;3.75;;
40669;SDS011;26355;45.528;9.234;2023-07-13T12:49:29;14.60;;;3.43;;
40669;SDS011;26355;45.528;9.234;2023-07-13T12:51:59;16.20;;;4.00;;
40669;SDS011;26355;45.528;9.234;2023-07-13T12:54:27;15.40;;;3.92;;
40669;SDS011;26355;45.528;9.234;2023-07-13T12:56:54;12.07;;;3.67;;
40669;SDS011;26355;45.528;9.234;2023-07-13T12:59:23;14.23;;;4.00;;
40669;SDS011;26355;45.528;9.234;2023-07-13T13:01:53;14.52;;;4.18;;
40669;SDS011;26355;45.528;9.234;2023-07-13T13:04:19;11.80;;;4.03;;
40669;SDS011;26355;45.528;9.234;2023-07-13T13:06:47;13.50;;;4.00;;
40669;SDS011;26355;45.528;9.234;2023-07-13T13:09:14;15.75;;;4.10;;
40669;SDS011;26355;45.528;9.234;2023-07-13T13:11:41;14.10;;;3.88;;
40669;SDS011;26355;45.528;9.234;2023-07-13T13:14:07;12.30;;;3.97;;
40669;SDS011;26355;45.528;9.234;2023-07-13T13:16:35;13.45;;;3.78;;
40669;SDS011;26355;45.528;9.234;2023-07-13T13:19:13;14.00;;;4.28;;
40669;SDS011;26355;45.528;9.234;2023-07-13T13:21:39;12.77;;;4.05;;
40669;SDS011;26355;45.528;9.234;2023-07-13T13:24:12;13.90;;;4.25;;
40669;SDS011;26355;45.528;9.234;2023-07-13T13:26:40;11.45;;;3.80;;
40669;SDS011;26355;45.528;9.234;2023-07-13T13:29:13;15.95;;;4.78;;
40669;SDS011;26355;45.528;9.234;2023-07-13T13:31:41;14.77;;;3.92;;
40669;SDS011;26355;45.528;9.234;2023-07-13T13:34:11;15.98;;;4.40;;
40669;SDS011;26355;45.528;9.234;2023-07-13T13:36:39;12.85;;;4.03;;
40669;SDS011;26355;45.528;9.234;2023-07-13T13:39:22;16.15;;;5.07;;
40669;SDS011;26355;45.528;9.234;2023-07-13T13:41:50;16.23;;;4.38;;
40669;SDS011;26355;45.528;9.234;2023-07-13T13:44:17;14.48;;;4.60;;
40669;SDS011;26355;45.528;9.234;2023-07-13T13:51:39;14.48;;;3.92;;
40669;SDS011;26355;45.528;9.234;2023-07-13T13:54:05;17.40;;;4.35;;
40669;SDS011;26355;45.528;9.234;2023-07-13T13:56:34;13.98;;;4.30;;
40669;SDS011;26355;45.528;9.234;2023-07-13T13:59:00;14.38;;;4.47;;
40669;SDS011;26355;45.528;9.234;2023-07-13T14:01:25;16.58;;;4.72;;
40669;SDS011;26355;45.528;9.234;2023-07-13T14:03:53;13.35;;;3.85;;
40669;SDS011;26355;45.528;9.234;2023-07-13T14:06:19;17.52;;;4.93;;
40669;SDS011;26355;45.528;9.234;2023-07-13T14:08:45;16.05;;;4.15;;
40669;SDS011;26355;45.528;9.234;2023-07-13T14:11:17;17.13;;;4.68;;
40669;SDS011;26355;45.528;9.234;2023-07-13T14:13:49;14.90;;;4.68;;
40669;SDS011;26355;45.528;9.234;2023-07-13T14:16:28;15.85;;;4.13;;
40669;SDS011;26355;45.528;9.234;2023-07-13T14:18:56;15.77;;;4.70;;
40669;SDS011;26355;45.528;9.234;2023-07-13T14:21:24;14.63;;;4.35;;
40669;SDS011;26355;45.528;9.234;2023-07-13T14:23:52;14.50;;;4.47;;
40669;SDS011;26355;45.528;9.234;2023-07-13T14:26:18;15.38;;;4.68;;
40669;SDS011;26355;45.528;9.234;2023-07-13T14:28:49;17.65;;;5.30;;
40669;SDS011;26355;45.528;9.234;2023-07-13T14:31:17;15.38;;;4.70;;
40669;SDS011;26355;45.528;9.234;2023-07-13T14:33:43;14.25;;;4.72;;
40669;SDS011;26355;45.528;9.234;2023-07-13T14:39:00;16.13;;;4.85;;
40669;SDS011;26355;45.528;9.234;2023-07-13T14:41:31;13.73;;;4.50;;
40669;SDS011;26355;45.528;9.234;2023-07-13T14:43:56;20.95;;;8.05;;
40669;SDS011;26355;45.528;9.234;2023-07-13T14:46:29;19.75;;;6.40;;
40669;SDS011;26355;45.528;9.234;2023-07-13T14:49:00;17.55;;;4.53;;
40669;SDS011;26355;45.528;9.234;2023-07-13T14:51:29;17.60;;;4.72;;
40669;SDS011;26355;45.528;9.234;2023-07-13T14:53:57;18.88;;;4.50;;
40669;SDS011;26355;45.528;9.234;2023-07-13T14:56:25;14.77;;;4.70;;
40669;SDS011;26355;45.528;9.234;2023-07-13T14:58:51;15.10;;;4.40;;
40669;SDS011;26355;45.528;9.234;2023-07-13T15:01:18;16.58;;;5.00;;
40669;SDS011;26355;45.528;9.234;2023-07-13T15:03:44;16.43;;;4.60;;
40669;SDS011;26355;45.528;9.234;2023-07-13T15:06:13;14.23;;;4.40;;
40669;SDS011;26355;45.528;9.234;2023-07-13T15:08:40;14.20;;;4.28;;
40669;SDS011;26355;45.528;9.234;2023-07-13T15:11:06;14.32;;;4.20;;
40669;SDS011;26355;45.528;9.234;2023-07-13T15:13:33;15.73;;;4.60;;
40669;SDS011;26355;45.528;9.234;2023-07-13T15:16:00;15.40;;;4.53;;
40669;SDS011;26355;45.528;9.234;2023-07-13T15:18:26;12.80;;;4.07;;
40669;SDS011;26355;45.528;9.234;2023-07-13T15:20:52;14.70;;;4.00;;
40669;SDS011;26355;45.528;9.234;2023-07-13T15:23:21;18.00;;;5.50;;
40669;SDS011;26355;45.528;9.234;2023-07-13T15:25:47;16.60;;;6.90;;